Time,TemperatureF,DewpointF,PressureIn,WindDirection,WindDirectionDegrees,WindSpeedMPH,WindSpeedGustMPH,Humidity,HourlyPrecipIn,Conditions,Clouds,dailyrainin,SolarRadiationWatts/m^2,SoftwareType,DateUTC
2013-10-17 00:00:00,49.8,47.5,29.90,NW,317,0.0,2.0,92,0.00,,,0.00,0.0,WUHU216DAVISVP2,2013-10-17 04:00:00,
2013-10-17 00:01:00,49.8,47.5,29.90,NW,317,0.0,2.0,92,0.00,,,0.00,0.0,WUHU216DAVISVP2,2013-10-17 04:01:00,
2013-10-17 00:02:00,49.8,47.5,29.90,NW,317,0.0,2.0,92,0.00,,,0.00,0.0,WUHU216DAVISVP2,2013-10-17 04:02:00,
2013-10-17 00:07:00,49.9,47.6,29.90,NW,317,1.0,2.0,92,0.00,,,0.00,0.0,WUHU216DAVISVP2,2013-10-17 04:07:00,
2013-10-17 00:12:00,50.0,47.7,29.90,NW,317,0.0,2.0,92,0.00,,,0.00,0.0,WUHU216DAVISVP2,2013-10-17 04:12:00,
2013-10-17 00:17:00,50.1,47.5,29.90,NW,317,1.0,2.0,91,0.00,,,0.00,0.0,WUHU216DAVISVP2,2013-10-17 04:17:00,
2013-10-17 00:22:00,50.1,47.5,29.89,NW,317,1.0,2.0,91,0.00,,,0.00,0.0,WUHU216DAVISVP2,2013-10-17 04:22:00,
2013-10-17 00:27:00,50.2,47.9,29.89,NW,317,0.0,2.0,92,0.00,,,0.00,0.0,WUHU216DAVISVP2,2013-10-17 04:27:00,
2013-10-17 00:32:00,50.2,48.0,29.89,NW,317,0.0,1.0,92,0.00,,,0.00,0.0,WUHU216DAVISVP2,2013-10-17 04:32:00,
2013-10-17 00:37:00,50.4,48.2,29.89,NW,317,0.0,1.0,92,0.00,,,0.00,0.0,WUHU216DAVISVP2,2013-10-17 04:37:00,
2013-10-17 00:42:00,50.6,48.1,29.89,NW,317,0.0,1.0,91,0.00,,,0.00,0.0,WUHU216DAVISVP2,2013-10-17 04:42:00,
2013-10-17 00:47:00,50.7,48.1,29.89,NW,317,0.0,1.0,91,0.00,,,0.00,0.0,WUHU216DAVISVP2,2013-10-17 04:47:00,
2013-10-17 00:52:00,50.7,48.1,29.88,NW,317,0.0,2.0,91,0.00,,,0.00,0.0,WUHU216DAVISVP2,2013-10-17 04:52:00,
2013-10-17 00:57:00,50.6,48.0,29.89,NW,317,0.0,2.0,91,0.00,,,0.00,0.0,WUHU216DAVISVP2,2013-10-17 04:57:00,
2013-10-17 01:02:00,50.6,48.0,29.89,NW,317,0.0,2.0,91,0.00,,,0.00,0.0,WUHU216DAVISVP2,2013-10-17 05:02:00,
2013-10-17 01:07:00,50.8,48.2,29.89,NW,317,0.0,2.0,91,0.00,,,0.00,0.0,WUHU216DAVISVP2,2013-10-17 05:07:00,
2013-10-17 01:12:00,50.9,48.3,29.89,NW,317,0.0,1.0,91,0.00,,,0.00,0.0,WUHU216DAVISVP2,2013-10-17 05:12:00,
2013-10-17 01:17:00,51.0,48.4,29.89,NW,317,0.0,1.0,91,0.00,,,0.00,0.0,WUHU216DAVISVP2,2013-10-17 05:17:00,
2013-10-17 01:22:00,51.3,48.4,29.89,North,5,0.0,2.0,90,0.00,,,0.00,0.0,WUHU216DAVISVP2,2013-10-17 05:22:00,
2013-10-17 01:27:00,51.2,48.3,29.89,North,5,0.0,2.0,90,0.00,,,0.00,0.0,WUHU216DAVISVP2,2013-10-17 05:27:00,
2013-10-17 01:32:00,51.2,48.6,29.89,North,360,0.0,2.0,91,0.00,,,0.00,0.0,WUHU216DAVISVP2,2013-10-17 05:32:00,
2013-10-17 01:37:00,51.2,48.3,29.88,North,360,0.0,2.0,90,0.00,,,0.00,0.0,WUHU216DAVISVP2,2013-10-17 05:37:00,
2013-10-17 01:42:00,51.2,48.6,29.88,North,360,0.0,2.0,91,0.00,,,0.00,0.0,WUHU216DAVISVP2,2013-10-17 05:42:00,
2013-10-17 01:47:00,51.2,48.3,29.88,North,360,0.0,2.0,90,0.00,,,0.00,0.0,WUHU216DAVISVP2,2013-10-17 05:47:00,
2013-10-17 01:52:00,51.2,48.3,29.88,North,360,0.0,2.0,90,0.00,,,0.00,0.0,WUHU216DAVISVP2,2013-10-17 05:52:00,
2013-10-17 01:57:00,51.2,48.4,29.89,North,360,0.0,1.0,90,0.00,,,0.00,0.0,WUHU216DAVISVP2,2013-10-17 05:57:00,
2013-10-17 02:02:00,51.3,48.5,29.89,North,360,0.0,1.0,90,0.00,,,0.00,0.0,WUHU216DAVISVP2,2013-10-17 06:02:00,
2013-10-17 02:07:00,51.4,48.2,29.88,North,360,0.0,1.0,89,0.00,,,0.00,0.0,WUHU216DAVISVP2,2013-10-17 06:07:00,
2013-10-17 02:12:00,51.5,48.3,29.88,North,360,0.0,1.0,89,0.00,,,0.00,0.0,WUHU216DAVISVP2,2013-10-17 06:12:00,
2013-10-17 02:17:00,51.5,48.3,29.88,North,360,0.0,1.0,89,0.00,,,0.00,0.0,WUHU216DAVISVP2,2013-10-17 06:17:00,
2013-10-17 02:22:00,51.6,48.4,29.88,North,360,1.0,1.0,89,0.00,,,0.00,0.0,WUHU216DAVISVP2,2013-10-17 06:22:00,
2013-10-17 02:27:00,51.5,48.3,29.88,North,360,1.0,2.0,89,0.00,,,0.00,0.0,WUHU216DAVISVP2,2013-10-17 06:27:00,
2013-10-17 02:32:00,51.4,48.5,29.88,North,360,0.0,2.0,90,0.00,,,0.00,0.0,WUHU216DAVISVP2,2013-10-17 06:32:00,
2013-10-17 02:37:00,51.3,48.4,29.88,North,360,0.0,2.0,90,0.00,,,0.00,0.0,WUHU216DAVISVP2,2013-10-17 06:37:00,
2013-10-17 02:42:00,51.3,48.4,29.88,North,360,0.0,2.0,90,0.00,,,0.00,0.0,WUHU216DAVISVP2,2013-10-17 06:42:00,
2013-10-17 02:47:00,51.3,48.4,29.87,North,360,0.0,1.0,90,0.00,,,0.00,0.0,WUHU216DAVISVP2,2013-10-17 06:47:00,
2013-10-17 02:52:00,51.2,48.6,29.87,North,360,0.0,1.0,91,0.00,,,0.00,0.0,WUHU216DAVISVP2,2013-10-17 06:52:00,
2013-10-17 02:57:00,51.2,48.3,29.86,North,360,0.0,1.0,90,0.00,,,0.00,0.0,WUHU216DAVISVP2,2013-10-17 06:57:00,
2013-10-17 03:02:00,51.2,48.3,29.86,North,360,0.0,1.0,90,0.00,,,0.00,0.0,WUHU216DAVISVP2,2013-10-17 07:02:00,
2013-10-17 03:07:00,51.1,48.5,29.86,North,360,0.0,1.0,91,0.00,,,0.00,0.0,WUHU216DAVISVP2,2013-10-17 07:07:00,
2013-10-17 03:12:00,51.0,48.1,29.86,North,360,0.0,1.0,90,0.00,,,0.00,0.0,WUHU216DAVISVP2,2013-10-17 07:12:00,
2013-10-17 03:17:00,51.0,48.4,29.87,North,360,1.0,1.0,91,0.00,,,0.00,0.0,WUHU216DAVISVP2,2013-10-17 07:17:00,
2013-10-17 03:22:00,50.9,48.3,29.86,North,360,0.0,1.0,91,0.00,,,0.00,0.0,WUHU216DAVISVP2,2013-10-17 07:22:00,
2013-10-17 03:27:00,50.8,48.2,29.86,North,360,0.0,1.0,91,0.00,,,0.00,0.0,WUHU216DAVISVP2,2013-10-17 07:27:00,
2013-10-17 03:32:00,50.7,48.1,29.86,North,360,0.0,1.0,91,0.00,,,0.00,0.0,WUHU216DAVISVP2,2013-10-17 07:32:00,
2013-10-17 03:37:00,50.4,47.8,29.85,North,360,0.0,1.0,91,0.00,,,0.00,0.0,WUHU216DAVISVP2,2013-10-17 07:37:00,
2013-10-17 03:42:00,50.3,47.8,29.85,North,360,0.0,1.0,91,0.00,,,0.00,0.0,WUHU216DAVISVP2,2013-10-17 07:42:00,
2013-10-17 03:47:00,50.0,47.5,29.85,North,360,0.0,1.0,91,0.00,,,0.00,0.0,WUHU216DAVISVP2,2013-10-17 07:47:00,
2013-10-17 03:52:00,49.8,47.3,29.85,North,360,0.0,1.0,91,0.00,,,0.00,0.0,WUHU216DAVISVP2,2013-10-17 07:52:00,
2013-10-17 03:57:00,49.5,47.0,29.85,North,360,0.0,1.0,91,0.00,,,0.00,0.0,WUHU216DAVISVP2,2013-10-17 07:57:00,
2013-10-17 04:02:00,49.3,46.7,29.85,North,360,0.0,1.0,91,0.00,,,0.00,0.0,WUHU216DAVISVP2,2013-10-17 08:02:00,
2013-10-17 04:07:00,49.1,46.6,29.85,North,360,0.0,1.0,91,0.00,,,0.00,0.0,WUHU216DAVISVP2,2013-10-17 08:07:00,
2013-10-17 04:08:00,49.1,46.6,29.85,North,360,0.0,1.0,91,0.00,,,0.00,0.0,WUHU216DAVISVP2,2013-10-17 08:08:00,
2013-10-17 04:13:00,48.9,46.4,29.84,North,360,0.0,1.0,91,0.00,,,0.00,0.0,WUHU216DAVISVP2,2013-10-17 08:13:00,
2013-10-17 04:18:00,48.8,46.6,29.85,North,360,0.0,1.0,92,0.00,,,0.00,0.0,WUHU216DAVISVP2,2013-10-17 08:18:00,
2013-10-17 04:23:00,48.5,46.2,29.85,North,360,0.0,1.0,92,0.00,,,0.00,0.0,WUHU216DAVISVP2,2013-10-17 08:23:00,
2013-10-17 04:28:00,48.3,46.0,29.85,North,360,0.0,1.0,92,0.00,,,0.00,0.0,WUHU216DAVISVP2,2013-10-17 08:28:00,
2013-10-17 04:33:00,48.2,45.9,29.85,North,360,0.0,0.0,92,0.00,,,0.00,0.0,WUHU216DAVISVP2,2013-10-17 08:33:00,
2013-10-17 04:38:00,48.3,46.3,29.85,North,360,0.0,0.0,93,0.00,,,0.00,0.0,WUHU216DAVISVP2,2013-10-17 08:38:00,
2013-10-17 04:43:00,48.3,46.3,29.84,North,360,0.0,0.0,93,0.00,,,0.00,0.0,WUHU216DAVISVP2,2013-10-17 08:43:00,
2013-10-17 04:48:00,48.1,45.8,29.84,North,360,0.0,1.0,92,0.00,,,0.00,0.0,WUHU216DAVISVP2,2013-10-17 08:48:00,
2013-10-17 04:53:00,47.8,45.5,29.85,North,360,0.0,1.0,92,0.00,,,0.00,0.0,WUHU216DAVISVP2,2013-10-17 08:53:00,
2013-10-17 04:58:00,47.6,45.3,29.85,North,360,0.0,1.0,92,0.00,,,0.00,0.0,WUHU216DAVISVP2,2013-10-17 08:58:00,
2013-10-17 05:03:00,47.7,45.7,29.85,North,360,0.0,1.0,93,0.00,,,0.00,0.0,WUHU216DAVISVP2,2013-10-17 09:03:00,
2013-10-17 05:08:00,47.5,45.5,29.85,North,360,0.0,1.0,93,0.00,,,0.00,0.0,WUHU216DAVISVP2,2013-10-17 09:08:00,
2013-10-17 05:13:00,47.4,45.4,29.85,North,360,0.0,1.0,93,0.00,,,0.00,0.0,WUHU216DAVISVP2,2013-10-17 09:13:00,
2013-10-17 05:18:00,47.3,45.3,29.84,North,360,0.0,1.0,93,0.00,,,0.00,0.0,WUHU216DAVISVP2,2013-10-17 09:18:00,
2013-10-17 05:23:00,47.6,45.6,29.85,North,360,0.0,1.0,93,0.00,,,0.00,0.0,WUHU216DAVISVP2,2013-10-17 09:23:00,
2013-10-17 05:28:00,47.6,45.6,29.85,North,360,0.0,0.0,93,0.00,,,0.00,0.0,WUHU216DAVISVP2,2013-10-17 09:28:00,
2013-10-17 05:33:00,47.8,45.8,29.85,North,360,0.0,1.0,93,0.00,,,0.00,0.0,WUHU216DAVISVP2,2013-10-17 09:33:00,
2013-10-17 05:38:00,47.9,45.9,29.85,North,360,1.0,1.0,93,0.00,,,0.00,0.0,WUHU216DAVISVP2,2013-10-17 09:38:00,
2013-10-17 05:43:00,47.8,45.8,29.85,North,360,0.0,1.0,93,0.00,,,0.00,0.0,WUHU216DAVISVP2,2013-10-17 09:43:00,
2013-10-17 05:48:00,47.8,45.8,29.85,North,360,0.0,1.0,93,0.00,,,0.00,0.0,WUHU216DAVISVP2,2013-10-17 09:48:00,
2013-10-17 05:53:00,47.8,45.8,29.85,North,360,0.0,1.0,93,0.00,,,0.00,0.0,WUHU216DAVISVP2,2013-10-17 09:53:00,
2013-10-17 05:58:00,47.9,45.9,29.85,North,360,0.0,1.0,93,0.00,,,0.00,0.0,WUHU216DAVISVP2,2013-10-17 09:58:00,
2013-10-17 06:03:00,48.1,46.1,29.85,North,360,1.0,2.0,93,0.00,,,0.00,0.0,WUHU216DAVISVP2,2013-10-17 10:03:00,
2013-10-17 06:08:00,48.2,46.3,29.85,North,360,0.0,2.0,93,0.00,,,0.00,0.0,WUHU216DAVISVP2,2013-10-17 10:08:00,
2013-10-17 06:13:00,48.4,46.5,29.85,North,360,0.0,2.0,93,0.00,,,0.00,0.0,WUHU216DAVISVP2,2013-10-17 10:13:00,
2013-10-17 06:18:00,48.5,46.5,29.85,North,360,0.0,2.0,93,0.00,,,0.00,0.0,WUHU216DAVISVP2,2013-10-17 10:18:00,
2013-10-17 06:23:00,48.5,46.5,29.85,North,360,0.0,1.0,93,0.00,,,0.00,0.0,WUHU216DAVISVP2,2013-10-17 10:23:00,
2013-10-17 06:28:00,48.6,46.6,29.85,North,360,0.0,1.0,93,0.00,,,0.00,0.0,WUHU216DAVISVP2,2013-10-17 10:28:00,
2013-10-17 06:33:00,48.6,46.6,29.85,North,360,0.0,1.0,93,0.00,,,0.00,0.0,WUHU216DAVISVP2,2013-10-17 10:33:00,
2013-10-17 06:38:00,48.6,46.6,29.84,North,360,0.0,1.0,93,0.00,,,0.00,0.0,WUHU216DAVISVP2,2013-10-17 10:38:00,
2013-10-17 06:43:00,48.6,46.6,29.84,North,360,0.0,1.0,93,0.00,,,0.00,0.0,WUHU216DAVISVP2,2013-10-17 10:43:00,
2013-10-17 06:48:00,48.6,46.6,29.84,North,360,0.0,0.0,93,0.00,,,0.00,0.0,WUHU216DAVISVP2,2013-10-17 10:48:00,
2013-10-17 06:53:00,48.6,46.6,29.84,North,360,0.0,0.0,93,0.00,,,0.00,0.0,WUHU216DAVISVP2,2013-10-17 10:53:00,
2013-10-17 06:58:00,48.6,46.3,29.84,North,360,0.0,0.0,92,0.00,,,0.00,0.0,WUHU216DAVISVP2,2013-10-17 10:58:00,
2013-10-17 07:03:00,48.4,46.1,29.84,North,360,1.0,2.0,92,0.00,,,0.00,0.0,WUHU216DAVISVP2,2013-10-17 11:03:00,
2013-10-17 07:08:00,48.4,46.1,29.85,North,360,0.0,2.0,92,0.00,,,0.00,5.0,WUHU216DAVISVP2,2013-10-17 11:08:00,
2013-10-17 07:13:00,48.3,46.0,29.85,North,360,0.0,2.0,92,0.00,,,0.00,7.0,WUHU216DAVISVP2,2013-10-17 11:13:00,
2013-10-17 07:18:00,48.2,45.9,29.85,North,360,1.0,2.0,92,0.00,,,0.00,12.0,WUHU216DAVISVP2,2013-10-17 11:18:00,
2013-10-17 07:23:00,48.4,46.1,29.85,North,360,0.0,2.0,92,0.00,,,0.00,19.0,WUHU216DAVISVP2,2013-10-17 11:23:00,
2013-10-17 07:28:00,48.6,46.3,29.85,North,360,0.0,2.0,92,0.00,,,0.00,23.0,WUHU216DAVISVP2,2013-10-17 11:28:00,
2013-10-17 07:33:00,48.8,46.8,29.85,North,360,1.0,2.0,93,0.00,,,0.00,23.0,WUHU216DAVISVP2,2013-10-17 11:33:00,
2013-10-17 07:38:00,49.0,46.7,29.85,North,360,1.0,2.0,92,0.00,,,0.00,21.0,WUHU216DAVISVP2,2013-10-17 11:38:00,
2013-10-17 07:43:00,49.1,46.8,29.85,North,360,0.0,2.0,92,0.00,,,0.00,40.0,WUHU216DAVISVP2,2013-10-17 11:43:00,
2013-10-17 07:48:00,49.3,47.0,29.85,North,360,0.0,2.0,92,0.00,,,0.00,51.0,WUHU216DAVISVP2,2013-10-17 11:48:00,
2013-10-17 07:53:00,49.7,47.4,29.86,North,360,1.0,2.0,92,0.00,,,0.00,44.0,WUHU216DAVISVP2,2013-10-17 11:53:00,
2013-10-17 07:58:00,49.9,47.4,29.85,NW,321,1.0,2.0,91,0.00,,,0.00,39.0,WUHU216DAVISVP2,2013-10-17 11:58:00,
2013-10-17 08:03:00,50.2,47.7,29.85,NW,319,0.0,2.0,91,0.00,,,0.00,46.0,WUHU216DAVISVP2,2013-10-17 12:03:00,
2013-10-17 08:08:00,50.2,47.7,29.86,NW,319,1.0,2.0,91,0.00,,,0.00,42.0,WUHU216DAVISVP2,2013-10-17 12:08:00,
2013-10-17 08:13:00,50.4,47.9,29.85,NNE,13,2.0,2.0,91,0.00,,,0.00,46.0,WUHU216DAVISVP2,2013-10-17 12:13:00,
2013-10-17 08:18:00,50.5,48.0,29.86,NNW,347,0.0,2.0,91,0.00,,,0.00,63.0,WUHU216DAVISVP2,2013-10-17 12:18:00,
2013-10-17 08:23:00,50.5,47.9,29.86,SSW,199,1.0,3.0,91,0.00,,,0.00,49.0,WUHU216DAVISVP2,2013-10-17 12:23:00,
2013-10-17 08:28:00,50.6,48.0,29.86,SSW,213,1.0,3.0,91,0.00,,,0.00,53.0,WUHU216DAVISVP2,2013-10-17 12:28:00,
2013-10-17 08:33:00,50.8,48.2,29.86,WSW,238,0.0,3.0,91,0.00,,,0.00,69.0,WUHU216DAVISVP2,2013-10-17 12:33:00,
2013-10-17 08:38:00,51.0,48.4,29.86,WSW,238,2.0,3.0,91,0.00,,,0.00,69.0,WUHU216DAVISVP2,2013-10-17 12:38:00,
2013-10-17 08:43:00,51.1,48.2,29.85,SW,232,1.0,2.0,90,0.00,,,0.00,62.0,WUHU216DAVISVP2,2013-10-17 12:43:00,
2013-10-17 08:48:00,51.2,48.4,29.85,East,94,1.0,3.0,90,0.00,,,0.00,63.0,WUHU216DAVISVP2,2013-10-17 12:48:00,
2013-10-17 08:53:00,51.0,48.2,29.85,WSW,248,0.0,3.0,90,0.00,,,0.00,72.0,WUHU216DAVISVP2,2013-10-17 12:53:00,
2013-10-17 08:58:00,51.4,48.5,29.85,WSW,248,0.0,3.0,90,0.00,,,0.00,109.0,WUHU216DAVISVP2,2013-10-17 12:58:00,
2013-10-17 09:03:00,51.5,48.3,29.85,WSW,247,0.0,3.0,89,0.00,,,0.00,111.0,WUHU216DAVISVP2,2013-10-17 13:03:00,
2013-10-17 09:08:00,51.7,48.5,29.85,WSW,246,1.0,3.0,89,0.00,,,0.00,84.0,WUHU216DAVISVP2,2013-10-17 13:08:00,
2013-10-17 09:13:00,51.8,48.6,29.85,WSW,247,0.0,3.0,89,0.00,,,0.00,98.0,WUHU216DAVISVP2,2013-10-17 13:13:00,
2013-10-17 09:18:00,52.1,49.0,29.85,WSW,247,1.0,3.0,89,0.00,,,0.00,40.0,WUHU216DAVISVP2,2013-10-17 13:18:00,
2013-10-17 09:23:00,52.1,48.9,29.85,WSW,247,1.0,3.0,89,0.00,,,0.00,223.0,WUHU216DAVISVP2,2013-10-17 13:23:00,
2013-10-17 09:28:00,52.6,49.1,29.85,WSW,247,1.0,3.0,88,0.00,,,0.00,318.0,WUHU216DAVISVP2,2013-10-17 13:28:00,
2013-10-17 09:33:00,52.9,49.1,29.85,WSW,247,1.0,3.0,87,0.00,,,0.00,330.0,WUHU216DAVISVP2,2013-10-17 13:33:00,
2013-10-17 09:38:00,53.6,49.5,29.85,WSW,247,2.0,3.0,86,0.00,,,0.00,332.0,WUHU216DAVISVP2,2013-10-17 13:38:00,
2013-10-17 09:43:00,54.5,50.4,29.85,WSW,247,1.0,3.0,86,0.00,,,0.00,367.0,WUHU216DAVISVP2,2013-10-17 13:43:00,
2013-10-17 09:48:00,55.6,50.9,29.85,WSW,247,1.0,3.0,84,0.00,,,0.00,316.0,WUHU216DAVISVP2,2013-10-17 13:48:00,
2013-10-17 09:53:00,55.8,51.0,29.84,SSW,213,0.0,3.0,84,0.00,,,0.00,111.0,WUHU216DAVISVP2,2013-10-17 13:53:00,
2013-10-17 09:58:00,56.8,51.4,29.84,South,186,1.0,3.0,82,0.00,,,0.00,304.0,WUHU216DAVISVP2,2013-10-17 13:58:00,
2013-10-17 10:03:00,57.9,52.1,29.84,South,186,1.0,3.0,81,0.00,,,0.00,301.0,WUHU216DAVISVP2,2013-10-17 14:03:00,
2013-10-17 10:08:00,58.7,52.9,29.84,South,190,0.0,3.0,81,0.00,,,0.00,250.0,WUHU216DAVISVP2,2013-10-17 14:08:00,
2013-10-17 10:13:00,59.7,53.2,29.84,WSW,249,0.0,2.0,79,0.00,,,0.00,348.0,WUHU216DAVISVP2,2013-10-17 14:13:00,
2013-10-17 10:18:00,59.4,52.6,29.83,WSW,248,0.0,3.0,78,0.00,,,0.00,459.0,WUHU216DAVISVP2,2013-10-17 14:18:00,
2013-10-17 10:23:00,61.5,54.2,29.83,WSW,248,1.0,3.0,77,0.00,,,0.00,410.0,WUHU216DAVISVP2,2013-10-17 14:23:00,
2013-10-17 10:28:00,61.7,53.8,29.83,West,272,2.0,3.0,75,0.00,,,0.00,480.0,WUHU216DAVISVP2,2013-10-17 14:28:00,
2013-10-17 10:33:00,63.0,54.7,29.83,WSW,244,0.0,3.0,74,0.00,,,0.00,497.0,WUHU216DAVISVP2,2013-10-17 14:33:00,
2013-10-17 10:38:00,63.3,53.9,29.83,WSW,244,1.0,3.0,71,0.00,,,0.00,504.0,WUHU216DAVISVP2,2013-10-17 14:38:00,
2013-10-17 10:43:00,63.8,54.6,29.83,SSW,202,1.0,3.0,72,0.00,,,0.00,510.0,WUHU216DAVISVP2,2013-10-17 14:43:00,
2013-10-17 10:48:00,65.7,55.4,29.82,South,184,1.0,3.0,69,0.00,,,0.00,519.0,WUHU216DAVISVP2,2013-10-17 14:48:00,
2013-10-17 10:53:00,65.2,54.1,29.82,SW,229,0.0,5.0,67,0.00,,,0.00,533.0,WUHU216DAVISVP2,2013-10-17 14:53:00,
2013-10-17 10:58:00,65.4,53.3,29.82,West,262,2.0,7.0,65,0.00,,,0.00,548.0,WUHU216DAVISVP2,2013-10-17 14:58:00,
2013-10-17 11:03:00,66.5,53.2,29.82,WNW,294,4.0,7.0,62,0.00,,,0.00,526.0,WUHU216DAVISVP2,2013-10-17 15:03:00,
2013-10-17 11:08:00,67.2,53.0,29.82,West,274,2.0,7.0,60,0.00,,,0.00,649.0,WUHU216DAVISVP2,2013-10-17 15:08:00,
2013-10-17 11:13:00,67.7,52.1,29.81,West,277,3.0,7.0,57,0.00,,,0.00,621.0,WUHU216DAVISVP2,2013-10-17 15:13:00,
2013-10-17 11:18:00,68.8,51.6,29.81,WNW,290,3.0,7.0,54,0.00,,,0.00,571.0,WUHU216DAVISVP2,2013-10-17 15:18:00,
2013-10-17 11:23:00,69.0,50.7,29.81,WNW,287,4.0,7.0,52,0.00,,,0.00,578.0,WUHU216DAVISVP2,2013-10-17 15:23:00,
2013-10-17 11:28:00,69.2,49.8,29.81,West,277,3.0,7.0,50,0.00,,,0.00,589.0,WUHU216DAVISVP2,2013-10-17 15:28:00,
2013-10-17 11:33:00,69.5,51.7,29.81,WSW,257,3.0,8.0,53,0.00,,,0.00,596.0,WUHU216DAVISVP2,2013-10-17 15:33:00,
2013-10-17 11:38:00,70.0,51.1,29.81,West,280,6.0,8.0,51,0.00,,,0.00,596.0,WUHU216DAVISVP2,2013-10-17 15:38:00,
2013-10-17 11:43:00,69.6,51.8,29.81,WNW,286,3.0,9.0,53,0.00,,,0.00,599.0,WUHU216DAVISVP2,2013-10-17 15:43:00,
2013-10-17 11:48:00,69.2,49.3,29.81,WNW,284,3.0,9.0,49,0.00,,,0.00,605.0,WUHU216DAVISVP2,2013-10-17 15:48:00,
2013-10-17 11:53:00,69.7,51.4,29.80,WNW,283,8.0,9.0,52,0.00,,,0.00,612.0,WUHU216DAVISVP2,2013-10-17 15:53:00,
2013-10-17 11:58:00,70.0,51.1,29.80,West,267,3.0,9.0,51,0.00,,,0.00,615.0,WUHU216DAVISVP2,2013-10-17 15:58:00,
2013-10-17 12:03:00,70.9,50.8,29.80,West,261,3.0,9.0,49,0.00,,,0.00,617.0,WUHU216DAVISVP2,2013-10-17 16:03:00,
2013-10-17 12:08:00,70.6,49.4,29.80,WNW,282,6.0,9.0,47,0.00,,,0.00,617.0,WUHU216DAVISVP2,2013-10-17 16:08:00,
2013-10-17 12:13:00,71.0,49.7,29.80,WNW,286,6.0,9.0,47,0.00,,,0.00,642.0,WUHU216DAVISVP2,2013-10-17 16:13:00,
2013-10-17 12:18:00,70.5,49.9,29.80,WNW,290,5.0,9.0,48,0.00,,,0.00,652.0,WUHU216DAVISVP2,2013-10-17 16:18:00,
2013-10-17 12:23:00,70.1,48.9,29.80,WNW,284,2.0,9.0,47,0.00,,,0.00,650.0,WUHU216DAVISVP2,2013-10-17 16:23:00,
2013-10-17 12:28:00,70.7,48.9,29.80,West,276,7.0,9.0,46,0.00,,,0.00,642.0,WUHU216DAVISVP2,2013-10-17 16:28:00,
2013-10-17 12:33:00,70.7,48.9,29.80,West,281,6.0,9.0,46,0.00,,,0.00,647.0,WUHU216DAVISVP2,2013-10-17 16:33:00,
2013-10-17 12:38:00,69.4,48.3,29.80,WNW,299,3.0,9.0,47,0.00,,,0.00,123.0,WUHU216DAVISVP2,2013-10-17 16:38:00,
2013-10-17 12:43:00,68.0,48.2,29.80,WNW,301,4.0,9.0,49,0.00,,,0.00,178.0,WUHU216DAVISVP2,2013-10-17 16:43:00,
2013-10-17 12:48:00,69.5,49.0,29.79,WNW,295,5.0,9.0,48,0.00,,,0.00,643.0,WUHU216DAVISVP2,2013-10-17 16:48:00,
2013-10-17 12:53:00,68.3,47.8,29.79,WNW,295,3.0,9.0,48,0.00,,,0.00,146.0,WUHU216DAVISVP2,2013-10-17 16:53:00,
2013-10-17 12:58:00,68.4,49.0,29.79,WNW,284,3.0,8.0,50,0.00,,,0.00,113.0,WUHU216DAVISVP2,2013-10-17 16:58:00,
2013-10-17 13:03:00,70.6,48.2,29.79,WSW,240,6.0,8.0,45,0.00,,,0.00,686.0,WUHU216DAVISVP2,2013-10-17 17:03:00,
2013-10-17 13:08:00,71.9,50.6,29.78,West,261,4.0,8.0,47,0.00,,,0.00,663.0,WUHU216DAVISVP2,2013-10-17 17:08:00,
2013-10-17 13:13:00,72.3,49.8,29.79,West,267,4.0,9.0,45,0.00,,,0.00,703.0,WUHU216DAVISVP2,2013-10-17 17:13:00,
2013-10-17 13:18:00,72.9,50.3,29.78,WNW,285,3.0,9.0,45,0.00,,,0.00,700.0,WUHU216DAVISVP2,2013-10-17 17:18:00,
2013-10-17 13:23:00,73.0,49.8,29.78,West,281,4.0,9.0,44,0.00,,,0.00,673.0,WUHU216DAVISVP2,2013-10-17 17:23:00,
2013-10-17 13:28:00,73.4,48.8,29.78,WNW,282,3.0,9.0,42,0.00,,,0.00,642.0,WUHU216DAVISVP2,2013-10-17 17:28:00,
2013-10-17 13:33:00,72.6,47.5,29.78,WSW,237,3.0,8.0,41,0.00,,,0.00,659.0,WUHU216DAVISVP2,2013-10-17 17:33:00,
2013-10-17 13:38:00,72.4,47.9,29.78,WNW,288,4.0,8.0,42,0.00,,,0.00,649.0,WUHU216DAVISVP2,2013-10-17 17:38:00,
2013-10-17 13:43:00,72.8,47.6,29.77,WSW,240,5.0,8.0,41,0.00,,,0.00,626.0,WUHU216DAVISVP2,2013-10-17 17:43:00,
2013-10-17 13:48:00,72.9,47.7,29.77,WNW,296,4.0,10.0,41,0.00,,,0.00,603.0,WUHU216DAVISVP2,2013-10-17 17:48:00,
2013-10-17 13:53:00,73.2,48.0,29.77,WNW,292,5.0,10.0,41,0.00,,,0.00,598.0,WUHU216DAVISVP2,2013-10-17 17:53:00,
2013-10-17 13:58:00,73.4,48.2,29.77,West,260,4.0,10.0,41,0.00,,,0.00,610.0,WUHU216DAVISVP2,2013-10-17 17:58:00,
2013-10-17 14:03:00,73.7,47.1,29.77,West,260,7.0,10.0,39,0.00,,,0.00,585.0,WUHU216DAVISVP2,2013-10-17 18:03:00,
2013-10-17 14:08:00,72.9,47.7,29.77,WNW,289,3.0,9.0,41,0.00,,,0.00,568.0,WUHU216DAVISVP2,2013-10-17 18:08:00,
2013-10-17 14:13:00,72.8,47.6,29.77,WNW,286,3.0,8.0,41,0.00,,,0.00,563.0,WUHU216DAVISVP2,2013-10-17 18:13:00,
2013-10-17 14:18:00,72.9,46.4,29.77,West,277,3.0,8.0,39,0.00,,,0.00,557.0,WUHU216DAVISVP2,2013-10-17 18:18:00,
2013-10-17 14:23:00,73.7,47.8,29.77,WSW,254,4.0,8.0,40,0.00,,,0.00,548.0,WUHU216DAVISVP2,2013-10-17 18:23:00,
2013-10-17 14:28:00,72.6,45.4,29.77,WSW,256,4.0,8.0,38,0.00,,,0.00,538.0,WUHU216DAVISVP2,2013-10-17 18:28:00,
2013-10-17 14:33:00,72.7,46.9,29.77,West,263,3.0,8.0,40,0.00,,,0.00,533.0,WUHU216DAVISVP2,2013-10-17 18:33:00,
2013-10-17 14:38:00,72.8,47.0,29.77,West,266,3.0,8.0,40,0.00,,,0.00,520.0,WUHU216DAVISVP2,2013-10-17 18:38:00,
2013-10-17 14:43:00,73.2,46.6,29.76,WNW,287,5.0,10.0,39,0.00,,,0.00,512.0,WUHU216DAVISVP2,2013-10-17 18:43:00,
2013-10-17 14:48:00,72.9,47.1,29.77,West,275,2.0,10.0,40,0.00,,,0.00,503.0,WUHU216DAVISVP2,2013-10-17 18:48:00,
2013-10-17 14:53:00,73.0,45.8,29.76,WNW,283,4.0,10.0,38,0.00,,,0.00,494.0,WUHU216DAVISVP2,2013-10-17 18:53:00,
2013-10-17 14:58:00,72.6,45.4,29.77,WNW,295,3.0,10.0,38,0.00,,,0.00,480.0,WUHU216DAVISVP2,2013-10-17 18:58:00,
2013-10-17 15:03:00,72.5,44.6,29.77,WNW,285,4.0,9.0,37,0.00,,,0.00,469.0,WUHU216DAVISVP2,2013-10-17 19:03:00,
2013-10-17 15:08:00,73.3,46.7,29.77,West,278,3.0,9.0,39,0.00,,,0.00,459.0,WUHU216DAVISVP2,2013-10-17 19:08:00,
2013-10-17 15:13:00,73.3,46.7,29.76,West,278,6.0,9.0,39,0.00,,,0.00,446.0,WUHU216DAVISVP2,2013-10-17 19:13:00,
2013-10-17 15:18:00,73.4,46.8,29.76,WSW,253,2.0,8.0,39,0.00,,,0.00,432.0,WUHU216DAVISVP2,2013-10-17 19:18:00,
2013-10-17 15:23:00,72.5,46.7,29.77,WNW,286,3.0,9.0,40,0.00,,,0.00,422.0,WUHU216DAVISVP2,2013-10-17 19:23:00,
2013-10-17 15:28:00,72.6,46.8,29.76,WNW,283,4.0,9.0,40,0.00,,,0.00,408.0,WUHU216DAVISVP2,2013-10-17 19:28:00,
2013-10-17 15:31:00,72.2,47.8,29.77,West,274,3.0,9.0,42,0.00,,,0.00,403.0,WUHU216DAVISVP2,2013-10-17 19:31:00,
2013-10-17 15:36:00,72.4,47.3,29.76,West,271,3.0,9.0,41,0.00,,,0.00,388.0,WUHU216DAVISVP2,2013-10-17 19:36:00,
2013-10-17 15:41:00,72.5,46.0,29.77,WNW,285,3.0,8.0,39,0.00,,,0.00,373.0,WUHU216DAVISVP2,2013-10-17 19:41:00,
2013-10-17 15:46:00,72.8,47.0,29.76,NW,304,3.0,8.0,40,0.00,,,0.00,359.0,WUHU216DAVISVP2,2013-10-17 19:46:00,
2013-10-17 15:51:00,72.0,44.9,29.76,WNW,288,4.0,8.0,38,0.00,,,0.00,345.0,WUHU216DAVISVP2,2013-10-17 19:51:00,
2013-10-17 15:56:00,71.2,44.8,29.76,WNW,282,3.0,8.0,39,0.00,,,0.00,334.0,WUHU216DAVISVP2,2013-10-17 19:56:00,
2013-10-17 16:01:00,71.6,46.6,29.76,West,265,6.0,8.0,41,0.00,,,0.00,116.0,WUHU216DAVISVP2,2013-10-17 20:01:00,
2013-10-17 16:06:00,71.3,45.6,29.76,West,280,4.0,8.0,40,0.00,,,0.00,76.0,WUHU216DAVISVP2,2013-10-17 20:06:00,
2013-10-17 16:11:00,70.8,45.8,29.76,West,281,2.0,8.0,41,0.00,,,0.00,141.0,WUHU216DAVISVP2,2013-10-17 20:11:00,
2013-10-17 16:16:00,70.8,46.6,29.76,WNW,288,3.0,8.0,42,0.00,,,0.00,70.0,WUHU216DAVISVP2,2013-10-17 20:16:00,
2013-10-17 16:21:00,70.6,45.7,29.76,WNW,284,3.0,7.0,41,0.00,,,0.00,49.0,WUHU216DAVISVP2,2013-10-17 20:21:00,
2013-10-17 16:26:00,70.6,46.3,29.76,West,281,2.0,7.0,42,0.00,,,0.00,95.0,WUHU216DAVISVP2,2013-10-17 20:26:00,
2013-10-17 16:31:00,70.2,46.6,29.76,WNW,292,4.0,6.0,43,0.00,,,0.00,60.0,WUHU216DAVISVP2,2013-10-17 20:31:00,
2013-10-17 16:36:00,69.8,46.8,29.76,WNW,283,2.0,7.0,44,0.00,,,0.00,53.0,WUHU216DAVISVP2,2013-10-17 20:36:00,
2013-10-17 16:41:00,69.5,45.9,29.76,WNW,288,3.0,7.0,43,0.00,,,0.00,39.0,WUHU216DAVISVP2,2013-10-17 20:41:00,
2013-10-17 16:46:00,69.3,46.4,29.76,West,279,3.0,7.0,44,0.00,,,0.00,53.0,WUHU216DAVISVP2,2013-10-17 20:46:00,
2013-10-17 16:51:00,68.9,47.2,29.76,WNW,286,4.0,7.0,46,0.00,,,0.00,54.0,WUHU216DAVISVP2,2013-10-17 20:51:00,
2013-10-17 16:56:00,68.5,46.3,29.76,WNW,290,3.0,7.0,45,0.00,,,0.00,53.0,WUHU216DAVISVP2,2013-10-17 20:56:00,
2013-10-17 17:01:00,68.1,47.1,29.76,West,281,3.0,7.0,47,0.00,,,0.00,47.0,WUHU216DAVISVP2,2013-10-17 21:01:00,
2013-10-17 17:06:00,67.7,46.7,29.76,WNW,291,4.0,7.0,47,0.00,,,0.00,26.0,WUHU216DAVISVP2,2013-10-17 21:06:00,
2013-10-17 17:11:00,67.3,46.4,29.76,West,279,3.0,7.0,47,0.00,,,0.00,42.0,WUHU216DAVISVP2,2013-10-17 21:11:00,
2013-10-17 17:16:00,67.0,47.2,29.76,WNW,287,2.0,6.0,49,0.00,,,0.00,28.0,WUHU216DAVISVP2,2013-10-17 21:16:00,
2013-10-17 17:21:00,66.3,47.7,29.76,WNW,287,1.0,4.0,51,0.00,,,0.00,28.0,WUHU216DAVISVP2,2013-10-17 21:21:00,
2013-10-17 17:26:00,65.6,48.5,29.76,WNW,287,2.0,4.0,54,0.00,,,0.00,21.0,WUHU216DAVISVP2,2013-10-17 21:26:00,
2013-10-17 17:31:00,64.6,49.6,29.76,WNW,285,2.0,4.0,58,0.00,,,0.00,19.0,WUHU216DAVISVP2,2013-10-17 21:31:00,
2013-10-17 17:36:00,63.3,49.8,29.76,WNW,285,2.0,3.0,61,0.00,,,0.00,12.0,WUHU216DAVISVP2,2013-10-17 21:36:00,
2013-10-17 17:41:00,62.2,50.4,29.77,WNW,285,0.0,3.0,65,0.00,,,0.00,11.0,WUHU216DAVISVP2,2013-10-17 21:41:00,
2013-10-17 17:46:00,61.4,50.5,29.77,WNW,285,0.0,3.0,67,0.00,,,0.00,9.0,WUHU216DAVISVP2,2013-10-17 21:46:00,
2013-10-17 17:51:00,60.5,50.0,29.77,WNW,285,0.0,3.0,68,0.00,,,0.00,7.0,WUHU216DAVISVP2,2013-10-17 21:51:00,
2013-10-17 17:56:00,59.5,50.2,29.77,WNW,285,1.0,2.0,71,0.00,,,0.00,5.0,WUHU216DAVISVP2,2013-10-17 21:56:00,
2013-10-17 18:01:00,58.8,50.3,29.77,WNW,285,0.0,1.0,73,0.00,,,0.00,0.0,WUHU216DAVISVP2,2013-10-17 22:01:00,
2013-10-17 18:06:00,58.2,49.3,29.77,WNW,285,0.0,1.0,72,0.00,,,0.00,0.0,WUHU216DAVISVP2,2013-10-17 22:06:00,
2013-10-17 18:11:00,58.0,49.5,29.77,WNW,285,0.0,1.0,73,0.00,,,0.00,0.0,WUHU216DAVISVP2,2013-10-17 22:11:00,
2013-10-17 18:16:00,57.9,49.8,29.77,WNW,285,0.0,1.0,74,0.00,,,0.00,0.0,WUHU216DAVISVP2,2013-10-17 22:16:00,
2013-10-17 18:21:00,57.4,49.3,29.77,WNW,285,0.0,1.0,74,0.00,,,0.00,0.0,WUHU216DAVISVP2,2013-10-17 22:21:00,
2013-10-17 18:26:00,56.8,49.1,29.77,WNW,285,0.0,1.0,75,0.00,,,0.00,0.0,WUHU216DAVISVP2,2013-10-17 22:26:00,
2013-10-17 18:31:00,56.6,49.1,29.77,WNW,285,0.0,1.0,76,0.00,,,0.00,0.0,WUHU216DAVISVP2,2013-10-17 22:31:00,
2013-10-17 18:36:00,56.5,48.7,29.77,WNW,285,0.0,1.0,75,0.00,,,0.00,0.0,WUHU216DAVISVP2,2013-10-17 22:36:00,
2013-10-17 18:41:00,56.3,48.9,29.77,WNW,285,0.0,1.0,76,0.00,,,0.00,0.0,WUHU216DAVISVP2,2013-10-17 22:41:00,
2013-10-17 18:46:00,55.8,48.4,29.78,WNW,285,0.0,1.0,76,0.00,,,0.00,0.0,WUHU216DAVISVP2,2013-10-17 22:46:00,
2013-10-17 18:51:00,55.3,48.3,29.78,WNW,285,0.0,1.0,77,0.00,,,0.00,0.0,WUHU216DAVISVP2,2013-10-17 22:51:00,
2013-10-17 18:56:00,55.3,49.0,29.78,WNW,285,0.0,1.0,79,0.00,,,0.00,0.0,WUHU216DAVISVP2,2013-10-17 22:56:00,
2013-10-17 19:01:00,54.8,48.8,29.78,WNW,285,0.0,1.0,80,0.00,,,0.00,0.0,WUHU216DAVISVP2,2013-10-17 23:01:00,
2013-10-17 19:06:00,54.4,48.7,29.78,WNW,285,1.0,2.0,81,0.00,,,0.00,0.0,WUHU216DAVISVP2,2013-10-17 23:06:00,
2013-10-17 19:11:00,54.1,48.4,29.78,WNW,285,0.0,2.0,81,0.00,,,0.00,0.0,WUHU216DAVISVP2,2013-10-17 23:11:00,
2013-10-17 19:16:00,54.0,48.7,29.78,WNW,285,0.0,2.0,82,0.00,,,0.00,0.0,WUHU216DAVISVP2,2013-10-17 23:16:00,
2013-10-17 19:21:00,53.5,48.2,29.78,WNW,285,0.0,2.0,82,0.00,,,0.00,0.0,WUHU216DAVISVP2,2013-10-17 23:21:00,
2013-10-17 19:26:00,53.3,48.0,29.78,WNW,285,0.0,1.0,82,0.00,,,0.00,0.0,WUHU216DAVISVP2,2013-10-17 23:26:00,
2013-10-17 19:31:00,53.4,48.1,29.78,WNW,285,0.0,1.0,82,0.00,,,0.00,0.0,WUHU216DAVISVP2,2013-10-17 23:31:00,
2013-10-17 19:36:00,53.5,47.8,29.78,WNW,285,0.0,1.0,81,0.00,,,0.00,0.0,WUHU216DAVISVP2,2013-10-17 23:36:00,
2013-10-17 19:41:00,53.0,48.0,29.78,WNW,285,0.0,2.0,83,0.00,,,0.00,0.0,WUHU216DAVISVP2,2013-10-17 23:41:00,
2013-10-17 19:46:00,52.5,47.5,29.78,WNW,285,0.0,2.0,83,0.00,,,0.00,0.0,WUHU216DAVISVP2,2013-10-17 23:46:00,
2013-10-17 19:51:00,52.0,47.6,29.77,WNW,285,0.0,2.0,85,0.00,,,0.00,0.0,WUHU216DAVISVP2,2013-10-17 23:51:00,
2013-10-17 20:09:00,51.3,47.3,29.77,WNW,293,0.0,1.0,86,0.00,,,0.00,0.0,WUHU216DAVISVP2,2013-10-18 00:09:00,
2013-10-17 20:14:00,51.2,47.1,29.77,WNW,285,0.0,1.0,86,0.00,,,0.00,0.0,WUHU216DAVISVP2,2013-10-18 00:14:00,
2013-10-17 20:19:00,51.0,46.9,29.77,WNW,285,0.0,1.0,86,0.00,,,0.00,0.0,WUHU216DAVISVP2,2013-10-18 00:19:00,
2013-10-17 20:24:00,51.1,47.0,29.77,WNW,285,0.0,1.0,86,0.00,,,0.00,0.0,WUHU216DAVISVP2,2013-10-18 00:24:00,
2013-10-17 20:29:00,51.2,47.4,29.77,WNW,285,1.0,2.0,87,0.00,,,0.00,0.0,WUHU216DAVISVP2,2013-10-18 00:29:00,
2013-10-17 20:34:00,50.8,46.7,29.77,WNW,285,0.0,2.0,86,0.00,,,0.00,0.0,WUHU216DAVISVP2,2013-10-18 00:34:00,
2013-10-17 20:39:00,50.7,47.0,29.76,WNW,285,1.0,2.0,87,0.00,,,0.00,0.0,WUHU216DAVISVP2,2013-10-18 00:39:00,
2013-10-17 20:44:00,50.6,46.9,29.76,WNW,285,0.0,2.0,87,0.00,,,0.00,0.0,WUHU216DAVISVP2,2013-10-18 00:44:00,
2013-10-17 20:49:00,50.0,46.3,29.76,WNW,285,0.0,2.0,87,0.00,,,0.00,0.0,WUHU216DAVISVP2,2013-10-18 00:49:00,
2013-10-17 20:54:00,49.9,46.2,29.75,WNW,285,0.0,2.0,87,0.00,,,0.00,0.0,WUHU216DAVISVP2,2013-10-18 00:54:00,
2013-10-17 20:59:00,49.8,46.1,29.75,WNW,285,0.0,1.0,87,0.00,,,0.00,0.0,WUHU216DAVISVP2,2013-10-18 00:59:00,
2013-10-17 21:04:00,49.5,46.1,29.76,WNW,285,0.0,1.0,88,0.00,,,0.00,0.0,WUHU216DAVISVP2,2013-10-18 01:04:00,
2013-10-17 21:09:00,49.3,45.6,29.76,WNW,285,0.0,1.0,87,0.00,,,0.00,0.0,WUHU216DAVISVP2,2013-10-18 01:09:00,
2013-10-17 21:14:00,49.4,46.0,29.76,WNW,285,0.0,1.0,88,0.00,,,0.00,0.0,WUHU216DAVISVP2,2013-10-18 01:14:00,
2013-10-17 21:19:00,49.9,46.2,29.76,WNW,285,0.0,1.0,87,0.00,,,0.00,0.0,WUHU216DAVISVP2,2013-10-18 01:19:00,
2013-10-17 21:24:00,50.0,46.6,29.76,WNW,285,0.0,1.0,88,0.00,,,0.00,0.0,WUHU216DAVISVP2,2013-10-18 01:24:00,
2013-10-17 21:29:00,50.4,47.0,29.75,WNW,285,1.0,1.0,88,0.00,,,0.00,0.0,WUHU216DAVISVP2,2013-10-18 01:29:00,
2013-10-17 21:34:00,50.7,47.2,29.76,WNW,285,0.0,1.0,88,0.00,,,0.00,0.0,WUHU216DAVISVP2,2013-10-18 01:34:00,
2013-10-17 21:39:00,50.7,47.0,29.76,WNW,285,1.0,2.0,87,0.00,,,0.00,0.0,WUHU216DAVISVP2,2013-10-18 01:39:00,
2013-10-17 21:44:00,50.3,46.6,29.75,WNW,285,0.0,2.0,87,0.00,,,0.00,0.0,WUHU216DAVISVP2,2013-10-18 01:44:00,
2013-10-17 21:49:00,49.9,46.5,29.75,WNW,285,0.0,2.0,88,0.00,,,0.00,0.0,WUHU216DAVISVP2,2013-10-18 01:49:00,
2013-10-17 21:54:00,49.8,46.4,29.75,WNW,285,0.0,2.0,88,0.00,,,0.00,0.0,WUHU216DAVISVP2,2013-10-18 01:54:00,
2013-10-17 21:59:00,49.9,46.5,29.74,WNW,285,0.0,1.0,88,0.00,,,0.00,0.0,WUHU216DAVISVP2,2013-10-18 01:59:00,
2013-10-17 22:04:00,49.7,46.3,29.75,WNW,285,0.0,1.0,88,0.00,,,0.00,0.0,WUHU216DAVISVP2,2013-10-18 02:04:00,
2013-10-17 22:09:00,49.9,46.5,29.75,WNW,285,0.0,1.0,88,0.00,,,0.00,0.0,WUHU216DAVISVP2,2013-10-18 02:09:00,
2013-10-17 22:14:00,50.2,46.8,29.74,WNW,285,0.0,1.0,88,0.00,,,0.00,0.0,WUHU216DAVISVP2,2013-10-18 02:14:00,
2013-10-17 22:19:00,50.3,46.9,29.74,WNW,285,1.0,1.0,88,0.00,,,0.00,0.0,WUHU216DAVISVP2,2013-10-18 02:19:00,
2013-10-17 22:24:00,50.4,47.0,29.74,WNW,285,1.0,2.0,88,0.00,,,0.00,0.0,WUHU216DAVISVP2,2013-10-18 02:24:00,
2013-10-17 22:29:00,50.3,46.9,29.74,WNW,285,0.0,2.0,88,0.00,,,0.00,0.0,WUHU216DAVISVP2,2013-10-18 02:29:00,
2013-10-17 22:34:00,50.5,46.8,29.74,WNW,285,0.0,2.0,87,0.00,,,0.00,0.0,WUHU216DAVISVP2,2013-10-18 02:34:00,
2013-10-17 22:39:00,50.6,46.9,29.74,WNW,285,0.0,2.0,87,0.00,,,0.00,0.0,WUHU216DAVISVP2,2013-10-18 02:39:00,
2013-10-17 22:44:00,50.6,46.9,29.74,WNW,285,0.0,1.0,87,0.00,,,0.00,0.0,WUHU216DAVISVP2,2013-10-18 02:44:00,
2013-10-17 22:49:00,50.9,47.1,29.73,WNW,285,0.0,1.0,87,0.00,,,0.00,0.0,WUHU216DAVISVP2,2013-10-18 02:49:00,
2013-10-17 22:54:00,50.9,47.1,29.72,WNW,285,0.0,1.0,87,0.00,,,0.00,0.0,WUHU216DAVISVP2,2013-10-18 02:54:00,
2013-10-17 22:59:00,51.0,47.3,29.71,WNW,285,1.0,1.0,87,0.00,,,0.00,0.0,WUHU216DAVISVP2,2013-10-18 02:59:00,
2013-10-17 23:04:00,51.0,47.6,29.72,WNW,285,1.0,2.0,88,0.00,,,0.00,0.0,WUHU216DAVISVP2,2013-10-18 03:04:00,
2013-10-17 23:09:00,51.0,47.5,29.71,WNW,285,0.0,2.0,88,0.00,,,0.00,0.0,WUHU216DAVISVP2,2013-10-18 03:09:00,
2013-10-17 23:14:00,51.0,47.5,29.70,WNW,285,0.0,2.0,88,0.00,,,0.00,0.0,WUHU216DAVISVP2,2013-10-18 03:14:00,
2013-10-17 23:19:00,51.1,47.6,29.71,WNW,285,0.0,2.0,88,0.00,,,0.00,0.0,WUHU216DAVISVP2,2013-10-18 03:19:00,
2013-10-17 23:24:00,51.1,47.9,29.72,WNW,285,1.0,2.0,89,0.00,,,0.00,0.0,WUHU216DAVISVP2,2013-10-18 03:24:00,
2013-10-17 23:29:00,51.2,48.0,29.74,WNW,285,2.0,3.0,89,0.00,,,0.00,0.0,WUHU216DAVISVP2,2013-10-18 03:29:00,
2013-10-17 23:34:00,51.2,48.0,29.73,WNW,285,0.0,3.0,89,0.00,,,0.00,0.0,WUHU216DAVISVP2,2013-10-18 03:34:00,
2013-10-17 23:39:00,51.5,48.3,29.74,WNW,285,1.0,3.0,89,0.00,,,0.00,0.0,WUHU216DAVISVP2,2013-10-18 03:39:00,
2013-10-17 23:44:00,51.6,48.7,29.74,WNW,285,0.0,3.0,90,0.00,,,0.00,0.0,WUHU216DAVISVP2,2013-10-18 03:44:00,
2013-10-17 23:49:00,51.7,48.8,29.75,WNW,285,0.0,2.0,90,0.01,,,0.01,0.0,WUHU216DAVISVP2,2013-10-18 03:49:00,
2013-10-17 23:54:00,51.7,48.9,29.75,WNW,285,0.0,2.0,90,0.01,,,0.01,0.0,WUHU216DAVISVP2,2013-10-18 03:54:00,
2013-10-17 23:59:00,51.8,49.0,29.74,WNW,285,0.0,2.0,90,0.01,,,0.01,0.0,WUHU216DAVISVP2,2013-10-18 03:59:00,